x

Tanner Bank - 121nm West Of San Diego, Ca (46047) Wave Buoy

6:50 - Fri 28th Nov 2014 All times are PST. -8 hours from GMT.

  • Sig Wave height 5.2ft
  • Swell Direction
  • Peak Period 15s
  • Average Period 10s
  • Wind
    9mph, 11mph gusts
  • Sea Temp 66°f
  • Luft Temp 65°f
  • Sea Pressure 1015.1mb
  • Tanner Bank - 121nm West Of San Diego, Ca
  • Tanner Bank - 121nm West Of San Diego, Ca

More Historic Weather Station data

Upgrade to MSW Pro to gain access to the past 30 days of data for over 8000 Wavebouys and Weather Stations around the globe.

Join Pro

Comparision Forecast

View Surf forecast
   
Fr 11/28 6:50 5ft 15s 10s 9 11 mph 1015.1mb 66f 65f
5:50 4.5ft 15s 9s 7 11 mph 1015mb 66f 65f
4:50 4.5ft 16s 8s 9
mph
1014.9mb 66f 64f
3:50 4ft 16s 9s 9 11 mph 1015mb 66f 65f
2:50 3.5ft 16s 7s 9 11 mph 1015.3mb 66f 65f
1:50 3.5ft 16s 7s 7 9 mph 1015.6mb 66f 64f
12:50 3.5ft 16s 8s 7 9 mph 1015.8mb 66f 64f
Do 11/27 11:50 3ft 13s 7s 9
mph
1016.2mb 66f 64f
10:50 3ft 12s 7s 9 11 mph 1016.4mb 66f 64f
9:50 2.5ft 12s 7s 7 9 mph 1016.5mb 66f 64f
8:50 2.5ft 13s 7s 9
mph
1016.7mb 66f 64f
7:50 3ft 13s 8s 9
mph
1016.7mb 66f 64f
6:50 2.5ft 12s 6s 9
mph
1016.6mb 66f 65f
5:50 3.5ft 11s 7s 7 9 mph 1016.6mb 66f 65f
4:50 3ft 11s 6s 9
mph
1016.4mb 66f 65f
3:50 3ft 11s 6s 9
mph
1016.4mb 66f 66f
2:50 3.5ft 12s 7s 9
mph
1016.4mb 66f 66f
1:50 3.5ft 12s 7s 9 11 mph 1016.6mb 66f 65f
12:50 3ft 11s 7s 9 11 mph 1017.3mb 66f 65f
11:50 3ft 11s 7s 7
mph
1018mb 66f 65f
10:50 3ft 12s 7s 11 13 mph 1018.9mb 65f 65f
9:50 3ft 11s 7s 9
mph
1019.5mb 65f 65f
8:50 3.5ft 12s 7s 4
mph
1019.4mb 65f 66f
7:50 3ft 11s 7s 4 7 mph 1018.9mb 65f 65f
6:50 3.5ft 12s 7s 9 11 mph 1018.8mb 65f 65f
5:50 3.5ft 12s 7s 9 11 mph 1018.6mb 65f 65f
4:50 3.5ft 12s 7s 11
mph
1018.3mb 65f 65f
3:50 3.5ft 13s 7s 7 9 mph 1018.3mb 65f 65f
2:50 3.5ft 12s 6s 9 11 mph 1018.6mb 65f 65f
1:50 3.5ft 14s 7s 11 13 mph 1019.2mb 65f 65f
12:50 3.5ft 12s 7s 11 13 mph 1019.5mb 65f 65f
Mi 11/26 11:50 3.5ft 12s 8s 13 16 mph 1019.8mb 65f 65f
10:50 3.5ft 13s 8s 11 13 mph 1020.2mb 65f 65f
9:50 4ft 13s 8s 11 13 mph 1020.4mb 65f 65f
8:50 3.5ft 13s 8s 11 13 mph 1020.5mb 65f 64f
7:50 3.5ft 12s 8s 11
mph
1020.2mb 65f 64f
6:50 4ft 14s 8s 13 16 mph 1020.4mb 65f 64f
5:50 4ft 13s 8s 11 13 mph 1020.4mb 66f 64f
4:50 4.5ft 12s 9s 11 13 mph 1020.4mb 66f 64f
3:50 4.5ft 13s 9s 11 13 mph 1020.4mb 66f 64f
2:50 4.5ft 13s 10s 9 11 mph 1020.6mb 66f 64f
1:50 5ft 13s 10s 9 11 mph 1020.9mb 66f 64f
12:50 4.5ft 13s 10s 11
mph
1021.4mb 66f 64f
11:50 4.5ft 13s 10s 9
mph
1022.4mb 65f 64f
10:50 4ft 14s 9s 7 9 mph 1023.3mb 65f 64f
9:50 4.5ft 13s 10s 7 9 mph 1023.8mb 65f 64f
8:50 4.5ft 11s 10s 9 11 mph 1023.6mb 65f 64f
7:50 4ft 13s 9s 9 11 mph 1023.3mb 65f 64f
6:50 4.5ft 14s 10s 9
mph
1022.9mb 65f 64f
5:50 4.5ft 14s 10s 9 11 mph 1022.7mb 65f 64f
4:50 5ft 14s 9s 9 11 mph 1022.6mb 65f 64f
3:50 5.5ft 12s 10s 11
mph
1023mb 65f 65f
2:50 6ft 13s 10s 9 11 mph 1023.7mb 65f 65f
1:50 6.5ft 14s 10s 9 11 mph 1023.8mb 65f 65f
12:50 5.5ft 15s 10s 7 9 mph 1024.3mb 65f 65f
Di 11/25 11:50 6ft 13s 10s 9 11 mph 1025mb 65f 65f
10:50 6ft 14s 10s 9 11 mph 1025.5mb 65f 65f
9:50 6ft 14s 10s 9
mph
1025.7mb 65f 65f
8:50 6.5ft 14s 10s 7 9 mph 1025.9mb 65f 65f
7:50 6.5ft 14s 10s 9 11 mph 1025.7mb 65f 65f
6:50 7ft 14s 10s 7 9 mph 1025.5mb 65f 65f
5:50 6ft 15s 10s 7 9 mph 1025.3mb 66f 65f
4:50 7ft 13s 10s 2 4 mph 1025.5mb 66f 66f
3:50 6.5ft 12s 10s 2 4 mph 1025.5mb 66f 67f
2:50 7ft 14s 10s 2
mph
1025.5mb 66f 67f
1:50 7.5ft 13s 10s 7
mph
1025.4mb 66f 66f
12:50 6.5ft 15s 10s 7
mph
1026.1mb 66f 66f
11:50 7ft 14s 10s 4
mph
1027mb 66f 66f
10:50 6.5ft 14s 10s 7 9 mph 1027.8mb 65f 66f
9:50 7ft 14s 10s 7 9 mph 1028.3mb 65f 66f
8:50 6ft 14s 9s 7 9 mph 1028.2mb 65f 67f
7:50 7ft 14s 9s 9
mph
1027.5mb 65f 67f
6:50 8ft 14s 10s 9
mph
1027mb 65f 66f
5:50 7.5ft 14s 9s 7 9 mph 1026.5mb 65f 66f
4:50 7ft 14s 9s 7 9 mph 1026mb 65f 65f
3:50 7ft 13s 9s 9 11 mph 1025.7mb 65f 65f
2:50 8ft 12s 9s 7 9 mph 1025.6mb 65f 65f
1:50 8ft 12s 9s 7 9 mph 1025.5mb 65f 66f
12:50 8ft 13s 9s 9 11 mph 1025.6mb 65f 66f
Mo 11/24 11:50 8ft 13s 9s 9 11 mph 1025.4mb 65f 65f
10:50 7.5ft 14s 8s 9 11 mph 1025.1mb 65f 65f
9:50 8ft 13s 9s 9 11 mph 1025mb 65f 65f
8:50 8ft 13s 8s 11 13 mph 1024.8mb 65f 65f
7:50 8ft 13s 9s 11 13 mph 1024.4mb 65f 65f
6:50 8ft 13s 9s 9 11 mph 1023.8mb 65f 65f
5:50 7ft 13s 8s 9
mph
1022.8mb 65f 65f
4:50 7ft 13s 8s 7 9 mph 1022.4mb 65f 66f